sensor_id;sensor_type;location;lat;lon;timestamp;pressure;altitude;pressure_sealevel;temperature;humidity
77877;BME280;67251;50.844;7.978;2023-12-20T00:01:23;98653.72;;;3.27;100.00
77877;BME280;67251;50.844;7.978;2023-12-20T00:03:48;98657.22;;;3.28;100.00
77877;BME280;67251;50.844;7.978;2023-12-20T00:06:14;98663.19;;;3.30;100.00
77877;BME280;67251;50.844;7.978;2023-12-20T00:08:39;98651.59;;;3.31;100.00
77877;BME280;67251;50.844;7.978;2023-12-20T00:11:05;98652.94;;;3.35;100.00
77877;BME280;67251;50.844;7.978;2023-12-20T00:13:30;98651.97;;;3.36;100.00
77877;BME280;67251;50.844;7.978;2023-12-20T00:15:56;98646.34;;;3.39;100.00
77877;BME280;67251;50.844;7.978;2023-12-20T00:18:21;98647.19;;;3.40;100.00
77877;BME280;67251;50.844;7.978;2023-12-20T00:20:47;98645.19;;;3.42;100.00
77877;BME280;67251;50.844;7.978;2023-12-20T00:23:14;98637.09;;;3.43;100.00
77877;BME280;67251;50.844;7.978;2023-12-20T00:25:39;98633.47;;;3.44;100.00
77877;BME280;67251;50.844;7.978;2023-12-20T00:28:04;98646.69;;;3.44;100.00
77877;BME280;67251;50.844;7.978;2023-12-20T00:30:30;98643.06;;;3.45;100.00
77877;BME280;67251;50.844;7.978;2023-12-20T00:32:55;98633.97;;;3.48;100.00
77877;BME280;67251;50.844;7.978;2023-12-20T00:35:21;98627.53;;;3.50;100.00
77877;BME280;67251;50.844;7.978;2023-12-20T00:37:46;98630.84;;;3.52;100.00
77877;BME280;67251;50.844;7.978;2023-12-20T00:40:12;98637.63;;;3.55;100.00
77877;BME280;67251;50.844;7.978;2023-12-20T00:42:37;98626.72;;;3.58;100.00
77877;BME280;67251;50.844;7.978;2023-12-20T00:45:03;98627.56;;;3.58;100.00
77877;BME280;67251;50.844;7.978;2023-12-20T00:47:30;98629.03;;;3.61;100.00
77877;BME280;67251;50.844;7.978;2023-12-20T00:49:55;98627.38;;;3.60;100.00
77877;BME280;67251;50.844;7.978;2023-12-20T00:52:21;98634.00;;;3.64;100.00
77877;BME280;67251;50.844;7.978;2023-12-20T00:54:47;98622.25;;;3.67;100.00
77877;BME280;67251;50.844;7.978;2023-12-20T00:57:13;98633.34;;;3.70;100.00
77877;BME280;67251;50.844;7.978;2023-12-20T00:59:38;98628.06;;;3.70;100.00
77877;BME280;67251;50.844;7.978;2023-12-20T01:02:04;98630.72;;;3.70;100.00
77877;BME280;67251;50.844;7.978;2023-12-20T01:04:29;98626.25;;;3.71;100.00
77877;BME280;67251;50.844;7.978;2023-12-20T01:06:55;98626.94;;;3.73;100.00
77877;BME280;67251;50.844;7.978;2023-12-20T01:09:20;98628.56;;;3.74;100.00
77877;BME280;67251;50.844;7.978;2023-12-20T01:11:49;98633.69;;;3.75;100.00
77877;BME280;67251;50.844;7.978;2023-12-20T01:14:14;98634.53;;;3.76;100.00
77877;BME280;67251;50.844;7.978;2023-12-20T01:16:39;98631.56;;;3.79;100.00
77877;BME280;67251;50.844;7.978;2023-12-20T01:19:05;98618.31;;;3.79;100.00
77877;BME280;67251;50.844;7.978;2023-12-20T01:21:30;98619.97;;;3.80;100.00
77877;BME280;67251;50.844;7.978;2023-12-20T01:23:55;98616.19;;;3.82;100.00
77877;BME280;67251;50.844;7.978;2023-12-20T01:26:21;98629.25;;;3.84;100.00
77877;BME280;67251;50.844;7.978;2023-12-20T01:28:46;98624.78;;;3.84;100.00
77877;BME280;67251;50.844;7.978;2023-12-20T01:31:12;98621.13;;;3.85;100.00
77877;BME280;67251;50.844;7.978;2023-12-20T01:33:37;98612.38;;;3.85;100.00
77877;BME280;67251;50.844;7.978;2023-12-20T01:36:03;98620.16;;;3.87;100.00
77877;BME280;67251;50.844;7.978;2023-12-20T01:38:29;98619.16;;;3.88;100.00
77877;BME280;67251;50.844;7.978;2023-12-20T01:40:54;98619.16;;;3.88;100.00
77877;BME280;67251;50.844;7.978;2023-12-20T01:46:48;98626.94;;;3.89;100.00
77877;BME280;67251;50.844;7.978;2023-12-20T01:49:15;98627.75;;;3.90;100.00
77877;BME280;67251;50.844;7.978;2023-12-20T01:51:41;98641.69;;;3.92;100.00
77877;BME280;67251;50.844;7.978;2023-12-20T01:54:07;98643.50;;;3.91;100.00
77877;BME280;67251;50.844;7.978;2023-12-20T01:56:33;98638.19;;;3.91;100.00
77877;BME280;67251;50.844;7.978;2023-12-20T01:59:00;98650.47;;;4.00;100.00
77877;BME280;67251;50.844;7.978;2023-12-20T02:01:25;98673.63;;;4.06;100.00
77877;BME280;67251;50.844;7.978;2023-12-20T02:03:53;98666.66;;;3.97;100.00
77877;BME280;67251;50.844;7.978;2023-12-20T02:06:21;98675.91;;;3.77;100.00
77877;BME280;67251;50.844;7.978;2023-12-20T02:08:48;98670.56;;;3.69;100.00
77877;BME280;67251;50.844;7.978;2023-12-20T02:11:14;98670.22;;;3.64;100.00
77877;BME280;67251;50.844;7.978;2023-12-20T02:13:40;98670.84;;;3.57;100.00
77877;BME280;67251;50.844;7.978;2023-12-20T02:16:06;98664.25;;;3.53;100.00
77877;BME280;67251;50.844;7.978;2023-12-20T02:18:32;98673.16;;;3.52;100.00
77877;BME280;67251;50.844;7.978;2023-12-20T02:20:58;98675.31;;;3.49;100.00
77877;BME280;67251;50.844;7.978;2023-12-20T02:23:23;98677.13;;;3.48;100.00
77877;BME280;67251;50.844;7.978;2023-12-20T02:25:49;98675.94;;;3.43;100.00
77877;BME280;67251;50.844;7.978;2023-12-20T02:28:14;98681.88;;;3.37;100.00
77877;BME280;67251;50.844;7.978;2023-12-20T02:30:40;98683.19;;;3.32;100.00
77877;BME280;67251;50.844;7.978;2023-12-20T02:33:07;98677.34;;;3.21;100.00
77877;BME280;67251;50.844;7.978;2023-12-20T02:35:35;98687.00;;;3.04;100.00
77877;BME280;67251;50.844;7.978;2023-12-20T02:38:01;98672.41;;;2.92;100.00
77877;BME280;67251;50.844;7.978;2023-12-20T02:40:26;98675.78;;;2.76;100.00
77877;BME280;67251;50.844;7.978;2023-12-20T02:42:51;98678.81;;;2.63;100.00
77877;BME280;67251;50.844;7.978;2023-12-20T02:45:17;98686.97;;;2.70;100.00
77877;BME280;67251;50.844;7.978;2023-12-20T02:47:42;98682.41;;;2.80;100.00
77877;BME280;67251;50.844;7.978;2023-12-20T02:50:07;98679.81;;;2.88;100.00
77877;BME280;67251;50.844;7.978;2023-12-20T02:52:33;98682.34;;;2.98;100.00
77877;BME280;67251;50.844;7.978;2023-12-20T02:54:58;98678.25;;;3.03;100.00
77877;BME280;67251;50.844;7.978;2023-12-20T02:57:23;98674.97;;;3.10;100.00
77877;BME280;67251;50.844;7.978;2023-12-20T02:59:49;98684.25;;;3.14;100.00
77877;BME280;67251;50.844;7.978;2023-12-20T03:02:14;98692.00;;;3.15;100.00
77877;BME280;67251;50.844;7.978;2023-12-20T03:04:40;98689.38;;;3.15;100.00
77877;BME280;67251;50.844;7.978;2023-12-20T03:07:05;98704.75;;;3.20;100.00
77877;BME280;67251;50.844;7.978;2023-12-20T03:09:30;98703.09;;;3.19;100.00
77877;BME280;67251;50.844;7.978;2023-12-20T03:11:56;98711.03;;;3.19;100.00
77877;BME280;67251;50.844;7.978;2023-12-20T03:14:21;98705.41;;;3.14;100.00
77877;BME280;67251;50.844;7.978;2023-12-20T03:16:49;98698.94;;;3.08;100.00
77877;BME280;67251;50.844;7.978;2023-12-20T03:19:15;98708.31;;;3.02;100.00
77877;BME280;67251;50.844;7.978;2023-12-20T03:21:41;98701.69;;;2.98;100.00
77877;BME280;67251;50.844;7.978;2023-12-20T03:24:06;98705.09;;;2.91;100.00
77877;BME280;67251;50.844;7.978;2023-12-20T03:26:32;98705.78;;;2.93;100.00
77877;BME280;67251;50.844;7.978;2023-12-20T03:28:57;98709.91;;;2.95;100.00
77877;BME280;67251;50.844;7.978;2023-12-20T03:31:22;98704.63;;;2.95;100.00
77877;BME280;67251;50.844;7.978;2023-12-20T03:33:48;98712.72;;;2.94;100.00
77877;BME280;67251;50.844;7.978;2023-12-20T03:36:13;98700.97;;;2.88;100.00
77877;BME280;67251;50.844;7.978;2023-12-20T03:38:39;98697.97;;;2.83;100.00
77877;BME280;67251;50.844;7.978;2023-12-20T03:41:04;98706.13;;;2.72;100.00
77877;BME280;67251;50.844;7.978;2023-12-20T03:43:29;98709.03;;;2.61;100.00
77877;BME280;67251;50.844;7.978;2023-12-20T03:45:55;98699.09;;;2.54;100.00
77877;BME280;67251;50.844;7.978;2023-12-20T03:48:20;98706.69;;;2.40;100.00
77877;BME280;67251;50.844;7.978;2023-12-20T03:50:45;98712.38;;;2.27;100.00
77877;BME280;67251;50.844;7.978;2023-12-20T03:53:10;98710.22;;;2.22;100.00
77877;BME280;67251;50.844;7.978;2023-12-20T03:55:36;98714.03;;;2.28;100.00
77877;BME280;67251;50.844;7.978;2023-12-20T03:58:01;98719.63;;;2.25;100.00
77877;BME280;67251;50.844;7.978;2023-12-20T04:00:26;98709.38;;;2.22;100.00
77877;BME280;67251;50.844;7.978;2023-12-20T04:02:52;98706.41;;;2.25;100.00
77877;BME280;67251;50.844;7.978;2023-12-20T04:05:17;98709.44;;;2.30;100.00
77877;BME280;67251;50.844;7.978;2023-12-20T04:07:43;98710.19;;;2.40;100.00
77877;BME280;67251;50.844;7.978;2023-12-20T04:10:09;98705.28;;;2.45;100.00
77877;BME280;67251;50.844;7.978;2023-12-20T04:12:34;98719.16;;;2.47;100.00
77877;BME280;67251;50.844;7.978;2023-12-20T04:14:59;98724.16;;;2.50;100.00
77877;BME280;67251;50.844;7.978;2023-12-20T04:17:25;98717.72;;;2.53;100.00
77877;BME280;67251;50.844;7.978;2023-12-20T04:19:51;98706.84;;;2.56;100.00
77877;BME280;67251;50.844;7.978;2023-12-20T04:22:19;98718.53;;;2.53;100.00
77877;BME280;67251;50.844;7.978;2023-12-20T04:24:45;98709.50;;;2.56;100.00
77877;BME280;67251;50.844;7.978;2023-12-20T04:27:10;98708.19;;;2.60;100.00
77877;BME280;67251;50.844;7.978;2023-12-20T04:29:36;98709.03;;;2.61;100.00
77877;BME280;67251;50.844;7.978;2023-12-20T04:32:01;98704.56;;;2.61;100.00
77877;BME280;67251;50.844;7.978;2023-12-20T04:34:27;98709.84;;;2.61;100.00
77877;BME280;67251;50.844;7.978;2023-12-20T04:36:53;98704.41;;;2.63;100.00
77877;BME280;67251;50.844;7.978;2023-12-20T04:39:18;98705.94;;;2.65;100.00
77877;BME280;67251;50.844;7.978;2023-12-20T04:41:43;98710.69;;;2.62;100.00
77877;BME280;67251;50.844;7.978;2023-12-20T04:44:09;98719.28;;;2.64;100.00
77877;BME280;67251;50.844;7.978;2023-12-20T04:46:34;98714.84;;;2.64;100.00
77877;BME280;67251;50.844;7.978;2023-12-20T04:49:00;98710.06;;;2.68;100.00
77877;BME280;67251;50.844;7.978;2023-12-20T04:51:26;98726.13;;;2.74;100.00
77877;BME280;67251;50.844;7.978;2023-12-20T04:53:51;98731.94;;;2.78;100.00
77877;BME280;67251;50.844;7.978;2023-12-20T04:56:16;98721.69;;;2.75;100.00
77877;BME280;67251;50.844;7.978;2023-12-20T04:58:42;98723.31;;;2.76;100.00
77877;BME280;67251;50.844;7.978;2023-12-20T05:01:08;98714.41;;;2.77;100.00
77877;BME280;67251;50.844;7.978;2023-12-20T05:03:34;98720.03;;;2.74;100.00
77877;BME280;67251;50.844;7.978;2023-12-20T05:05:59;98718.50;;;2.71;100.00
77877;BME280;67251;50.844;7.978;2023-12-20T05:08:24;98717.69;;;2.71;100.00
77877;BME280;67251;50.844;7.978;2023-12-20T05:10:51;98724.25;;;2.67;100.00
77877;BME280;67251;50.844;7.978;2023-12-20T05:13:16;98721.88;;;2.55;100.00
77877;BME280;67251;50.844;7.978;2023-12-20T05:15:42;98718.94;;;2.41;100.00
77877;BME280;67251;50.844;7.978;2023-12-20T05:18:07;98712.38;;;2.27;100.00
77877;BME280;67251;50.844;7.978;2023-12-20T05:20:33;98718.88;;;2.15;100.00
77877;BME280;67251;50.844;7.978;2023-12-20T05:22:58;98718.78;;;2.07;100.00
77877;BME280;67251;50.844;7.978;2023-12-20T05:25:23;98713.22;;;2.10;100.00
77877;BME280;67251;50.844;7.978;2023-12-20T05:27:50;98716.94;;;2.17;100.00
77877;BME280;67251;50.844;7.978;2023-12-20T05:30:16;98710.88;;;2.24;100.00
77877;BME280;67251;50.844;7.978;2023-12-20T05:32:41;98712.69;;;2.24;100.00
77877;BME280;67251;50.844;7.978;2023-12-20T05:35:06;98713.06;;;2.29;100.00
77877;BME280;67251;50.844;7.978;2023-12-20T05:37:32;98716.22;;;2.33;100.00
77877;BME280;67251;50.844;7.978;2023-12-20T05:39:57;98728.16;;;2.37;100.00
77877;BME280;67251;50.844;7.978;2023-12-20T05:42:23;98724.22;;;2.41;100.00
77877;BME280;67251;50.844;7.978;2023-12-20T05:44:48;98717.25;;;2.40;100.00
77877;BME280;67251;50.844;7.978;2023-12-20T05:47:13;98729.81;;;2.38;100.00
77877;BME280;67251;50.844;7.978;2023-12-20T05:49:39;98731.78;;;2.36;100.00
77877;BME280;67251;50.844;7.978;2023-12-20T05:52:04;98722.88;;;2.37;100.00
77877;BME280;67251;50.844;7.978;2023-12-20T05:54:30;98740.53;;;2.36;100.00
77877;BME280;67251;50.844;7.978;2023-12-20T05:56:55;98742.00;;;2.39;100.00
77877;BME280;67251;50.844;7.978;2023-12-20T05:59:21;98744.66;;;2.39;100.00
77877;BME280;67251;50.844;7.978;2023-12-20T06:01:46;98740.53;;;2.36;100.00
77877;BME280;67251;50.844;7.978;2023-12-20T06:04:11;98745.66;;;2.38;100.00
77877;BME280;67251;50.844;7.978;2023-12-20T06:06:41;98749.47;;;2.43;100.00
77877;BME280;67251;50.844;7.978;2023-12-20T06:09:07;98747.66;;;2.44;100.00
77877;BME280;67251;50.844;7.978;2023-12-20T06:11:32;98741.44;;;2.45;100.00
77877;BME280;67251;50.844;7.978;2023-12-20T06:13:57;98745.28;;;2.50;100.00
77877;BME280;67251;50.844;7.978;2023-12-20T06:16:23;98735.38;;;2.52;100.00
77877;BME280;67251;50.844;7.978;2023-12-20T06:18:48;98738.53;;;2.56;100.00
77877;BME280;67251;50.844;7.978;2023-12-20T06:21:14;98736.72;;;2.56;100.00
77877;BME280;67251;50.844;7.978;2023-12-20T06:23:39;98736.44;;;2.60;100.00
77877;BME280;67251;50.844;7.978;2023-12-20T06:26:04;98752.13;;;2.61;100.00
77877;BME280;67251;50.844;7.978;2023-12-20T06:28:30;98745.19;;;2.60;100.00
77877;BME280;67251;50.844;7.978;2023-12-20T06:30:55;98743.06;;;2.64;100.00
77877;BME280;67251;50.844;7.978;2023-12-20T06:33:22;98754.59;;;2.63;100.00
77877;BME280;67251;50.844;7.978;2023-12-20T06:35:48;98742.38;;;2.62;100.00
77877;BME280;67251;50.844;7.978;2023-12-20T06:38:13;98746.84;;;2.61;100.00
77877;BME280;67251;50.844;7.978;2023-12-20T06:40:38;98731.50;;;2.65;100.00
77877;BME280;67251;50.844;7.978;2023-12-20T06:43:04;98744.72;;;2.65;100.00
77877;BME280;67251;50.844;7.978;2023-12-20T06:45:29;98727.88;;;2.66;100.00
77877;BME280;67251;50.844;7.978;2023-12-20T06:47:54;98741.09;;;2.66;100.00
77877;BME280;67251;50.844;7.978;2023-12-20T06:50:20;98740.56;;;2.62;100.00
77877;BME280;67251;50.844;7.978;2023-12-20T06:52:46;98740.09;;;2.67;100.00
77877;BME280;67251;50.844;7.978;2023-12-20T06:55:11;98736.63;;;2.66;100.00
77877;BME280;67251;50.844;7.978;2023-12-20T06:57:36;98734.81;;;2.67;100.00
77877;BME280;67251;50.844;7.978;2023-12-20T07:00:02;98736.34;;;2.69;100.00
77877;BME280;67251;50.844;7.978;2023-12-20T07:02:28;98737.34;;;2.68;100.00
77877;BME280;67251;50.844;7.978;2023-12-20T07:04:55;98740.94;;;2.67;100.00
77877;BME280;67251;50.844;7.978;2023-12-20T07:07:21;98741.75;;;2.68;100.00
77877;BME280;67251;50.844;7.978;2023-12-20T07:09:48;98740.78;;;2.69;100.00
77877;BME280;67251;50.844;7.978;2023-12-20T07:12:14;98743.94;;;2.72;100.00
77877;BME280;67251;50.844;7.978;2023-12-20T07:14:39;98731.72;;;2.71;100.00
77877;BME280;67251;50.844;7.978;2023-12-20T07:17:04;98735.19;;;2.72;100.00
77877;BME280;67251;50.844;7.978;2023-12-20T07:19:30;98736.84;;;2.73;100.00
77877;BME280;67251;50.844;7.978;2023-12-20T07:21:55;98745.63;;;2.73;100.00
77877;BME280;67251;50.844;7.978;2023-12-20T07:24:20;98744.47;;;2.76;100.00
77877;BME280;67251;50.844;7.978;2023-12-20T07:26:46;98738.34;;;2.75;100.00
77877;BME280;67251;50.844;7.978;2023-12-20T07:29:11;98735.91;;;2.82;100.00
77877;BME280;67251;50.844;7.978;2023-12-20T07:31:37;98734.78;;;2.85;100.00
77877;BME280;67251;50.844;7.978;2023-12-20T07:34:03;98730.34;;;2.85;100.00
77877;BME280;67251;50.844;7.978;2023-12-20T07:36:28;98738.25;;;2.85;100.00
77877;BME280;67251;50.844;7.978;2023-12-20T07:38:54;98739.09;;;2.86;100.00
77877;BME280;67251;50.844;7.978;2023-12-20T07:41:19;98742.56;;;2.86;100.00
77877;BME280;67251;50.844;7.978;2023-12-20T07:43:46;98747.19;;;2.84;100.00
77877;BME280;67251;50.844;7.978;2023-12-20T07:46:12;98758.41;;;2.86;100.00
77877;BME280;67251;50.844;7.978;2023-12-20T07:48:38;98752.28;;;2.86;100.00
77877;BME280;67251;50.844;7.978;2023-12-20T07:51:06;98748.66;;;2.87;100.00
77877;BME280;67251;50.844;7.978;2023-12-20T07:53:35;98744.59;;;2.92;100.00
77877;BME280;67251;50.844;7.978;2023-12-20T07:56:00;98747.59;;;2.97;100.00
77877;BME280;67251;50.844;7.978;2023-12-20T07:58:26;98752.44;;;3.02;100.00
77877;BME280;67251;50.844;7.978;2023-12-20T08:00:51;98755.19;;;3.00;100.00
77877;BME280;67251;50.844;7.978;2023-12-20T08:03:16;98757.53;;;3.03;100.00
77877;BME280;67251;50.844;7.978;2023-12-20T08:05:42;98763.50;;;3.05;100.00
77877;BME280;67251;50.844;7.978;2023-12-20T08:08:07;98757.91;;;3.08;100.00
77877;BME280;67251;50.844;7.978;2023-12-20T08:10:33;98764.19;;;3.07;100.00
77877;BME280;67251;50.844;7.978;2023-12-20T08:12:58;98768.31;;;3.10;100.00
77877;BME280;67251;50.844;7.978;2023-12-20T08:15:23;98774.47;;;3.11;100.00
77877;BME280;67251;50.844;7.978;2023-12-20T08:17:49;98778.75;;;3.12;100.00
77877;BME280;67251;50.844;7.978;2023-12-20T08:20:18;98776.94;;;3.12;100.00
77877;BME280;67251;50.844;7.978;2023-12-20T08:22:43;98777.75;;;3.13;100.00
77877;BME280;67251;50.844;7.978;2023-12-20T08:25:08;98777.59;;;3.14;100.00
77877;BME280;67251;50.844;7.978;2023-12-20T08:27:39;98780.94;;;3.16;100.00
77877;BME280;67251;50.844;7.978;2023-12-20T08:30:05;98778.44;;;3.15;100.00
77877;BME280;67251;50.844;7.978;2023-12-20T08:32:30;98782.06;;;3.14;100.00
77877;BME280;67251;50.844;7.978;2023-12-20T08:34:57;98769.84;;;3.13;100.00
77877;BME280;67251;50.844;7.978;2023-12-20T08:37:22;98771.31;;;3.15;100.00
77877;BME280;67251;50.844;7.978;2023-12-20T08:39:48;98774.66;;;3.17;100.00
77877;BME280;67251;50.844;7.978;2023-12-20T08:42:13;98767.03;;;3.14;100.00
77877;BME280;67251;50.844;7.978;2023-12-20T08:44:38;98771.31;;;3.15;100.00
77877;BME280;67251;50.844;7.978;2023-12-20T08:47:04;98767.19;;;3.13;100.00
77877;BME280;67251;50.844;7.978;2023-12-20T08:49:29;98776.09;;;3.12;100.00
77877;BME280;67251;50.844;7.978;2023-12-20T08:51:55;98773.78;;;3.08;100.00
77877;BME280;67251;50.844;7.978;2023-12-20T08:54:20;98771.13;;;3.08;100.00
77877;BME280;67251;50.844;7.978;2023-12-20T08:56:45;98764.03;;;3.09;100.00
77877;BME280;67251;50.844;7.978;2023-12-20T08:59:11;98758.91;;;3.07;100.00
77877;BME280;67251;50.844;7.978;2023-12-20T09:01:37;98761.72;;;3.06;100.00
77877;BME280;67251;50.844;7.978;2023-12-20T09:04:03;98756.72;;;3.03;100.00
77877;BME280;67251;50.844;7.978;2023-12-20T09:06:28;98758.66;;;3.01;100.00
77877;BME280;67251;50.844;7.978;2023-12-20T09:08:53;98757.03;;;3.00;100.00
77877;BME280;67251;50.844;7.978;2023-12-20T09:11:19;98759.66;;;3.00;100.00
77877;BME280;67251;50.844;7.978;2023-12-20T09:13:44;98764.81;;;3.01;100.00
77877;BME280;67251;50.844;7.978;2023-12-20T09:16:10;98749.91;;;3.00;100.00
77877;BME280;67251;50.844;7.978;2023-12-20T09:18:35;98756.19;;;2.99;100.00
77877;BME280;67251;50.844;7.978;2023-12-20T09:21:01;98757.19;;;2.98;100.00
77877;BME280;67251;50.844;7.978;2023-12-20T09:23:27;98765.13;;;2.98;100.00
77877;BME280;67251;50.844;7.978;2023-12-20T09:25:52;98758.19;;;2.97;100.00
77877;BME280;67251;50.844;7.978;2023-12-20T09:28:18;98759.00;;;2.98;100.00
77877;BME280;67251;50.844;7.978;2023-12-20T09:30:44;98751.22;;;2.96;100.00
77877;BME280;67251;50.844;7.978;2023-12-20T09:33:11;98753.19;;;2.94;100.00
77877;BME280;67251;50.844;7.978;2023-12-20T09:35:37;98747.06;;;2.94;100.00
77877;BME280;67251;50.844;7.978;2023-12-20T09:38:02;98750.72;;;2.93;100.00
77877;BME280;67251;50.844;7.978;2023-12-20T09:40:28;98759.31;;;2.95;100.00
77877;BME280;67251;50.844;7.978;2023-12-20T09:42:57;98756.81;;;2.93;100.00
77877;BME280;67251;50.844;7.978;2023-12-20T09:45:23;98752.19;;;2.95;100.00
77877;BME280;67251;50.844;7.978;2023-12-20T09:47:53;98759.13;;;2.96;100.00
77877;BME280;67251;50.844;7.978;2023-12-20T09:50:20;98758.84;;;2.99;100.00
77877;BME280;67251;50.844;7.978;2023-12-20T09:52:50;98759.66;;;3.00;100.00
77877;BME280;67251;50.844;7.978;2023-12-20T09:55:17;98752.56;;;3.00;100.00
77877;BME280;67251;50.844;7.978;2023-12-20T09:57:42;98748.78;;;3.03;100.00
77877;BME280;67251;50.844;7.978;2023-12-20T10:00:08;98751.28;;;3.04;100.00
77877;BME280;67251;50.844;7.978;2023-12-20T10:02:34;98743.03;;;3.07;100.00
77877;BME280;67251;50.844;7.978;2023-12-20T10:05:06;98753.44;;;3.09;100.00
77877;BME280;67251;50.844;7.978;2023-12-20T10:07:34;98738.41;;;3.10;100.00
77877;BME280;67251;50.844;7.978;2023-12-20T10:10:00;98747.34;;;3.08;100.00
77877;BME280;67251;50.844;7.978;2023-12-20T10:12:27;98750.16;;;3.07;100.00
77877;BME280;67251;50.844;7.978;2023-12-20T10:14:52;98738.88;;;3.05;100.00
77877;BME280;67251;50.844;7.978;2023-12-20T10:17:18;98744.03;;;3.06;100.00
77877;BME280;67251;50.844;7.978;2023-12-20T10:19:43;98741.22;;;3.08;100.00
77877;BME280;67251;50.844;7.978;2023-12-20T10:22:10;98731.31;;;3.10;100.00
77877;BME280;67251;50.844;7.978;2023-12-20T10:24:35;98734.81;;;3.11;100.00
77877;BME280;67251;50.844;7.978;2023-12-20T10:27:07;98744.69;;;3.08;100.00
77877;BME280;67251;50.844;7.978;2023-12-20T10:29:34;98742.22;;;3.07;100.00
77877;BME280;67251;50.844;7.978;2023-12-20T10:34:45;98738.88;;;3.05;100.00
77877;BME280;67251;50.844;7.978;2023-12-20T10:37:10;98734.41;;;3.05;100.00
77877;BME280;67251;50.844;7.978;2023-12-20T10:39:36;98741.69;;;3.03;100.00
77877;BME280;67251;50.844;7.978;2023-12-20T10:42:01;98741.69;;;3.03;100.00
77877;BME280;67251;50.844;7.978;2023-12-20T10:44:28;98735.56;;;3.03;100.00
77877;BME280;67251;50.844;7.978;2023-12-20T10:46:53;98740.69;;;3.04;100.00
77877;BME280;67251;50.844;7.978;2023-12-20T10:49:23;98746.97;;;3.03;100.00
77877;BME280;67251;50.844;7.978;2023-12-20T10:51:50;98742.50;;;3.04;100.00
77877;BME280;67251;50.844;7.978;2023-12-20T10:54:17;98742.50;;;3.04;100.00
77877;BME280;67251;50.844;7.978;2023-12-20T10:56:42;98729.47;;;3.02;100.00
77877;BME280;67251;50.844;7.978;2023-12-20T10:59:10;98725.81;;;3.03;100.00
77877;BME280;67251;50.844;7.978;2023-12-20T11:01:37;98725.00;;;3.03;100.00
77877;BME280;67251;50.844;7.978;2023-12-20T11:04:06;98724.19;;;3.02;100.00
77877;BME280;67251;50.844;7.978;2023-12-20T11:06:45;98719.72;;;3.03;100.00
77877;BME280;67251;50.844;7.978;2023-12-20T11:09:19;98719.88;;;3.01;100.00
77877;BME280;67251;50.844;7.978;2023-12-20T11:12:10;98728.09;;;2.98;100.00
77877;BME280;67251;50.844;7.978;2023-12-20T11:14:50;98721.31;;;2.96;100.00
77877;BME280;67251;50.844;7.978;2023-12-20T11:17:16;98725.09;;;2.93;100.00
77877;BME280;67251;50.844;7.978;2023-12-20T11:22:17;98721.78;;;2.91;100.00
77877;BME280;67251;50.844;7.978;2023-12-20T11:24:44;98721.63;;;2.93;100.00
77877;BME280;67251;50.844;7.978;2023-12-20T11:27:10;98717.34;;;2.92;100.00
77877;BME280;67251;50.844;7.978;2023-12-20T11:29:36;98701.97;;;2.95;100.00
77877;BME280;67251;50.844;7.978;2023-12-20T11:37:40;98705.63;;;2.94;100.00
77877;BME280;67251;50.844;7.978;2023-12-20T11:40:12;98707.59;;;2.92;100.00
77877;BME280;67251;50.844;7.978;2023-12-20T11:42:44;98705.91;;;2.91;100.00
77877;BME280;67251;50.844;7.978;2023-12-20T11:45:11;98702.31;;;2.92;100.00
77877;BME280;67251;50.844;7.978;2023-12-20T11:47:40;98709.25;;;2.93;100.00
77877;BME280;67251;50.844;7.978;2023-12-20T11:50:06;98713.84;;;2.91;100.00
77877;BME280;67251;50.844;7.978;2023-12-20T11:52:31;98706.78;;;2.92;100.00
77877;BME280;67251;50.844;7.978;2023-12-20T11:54:57;98696.88;;;2.94;100.00
77877;BME280;67251;50.844;7.978;2023-12-20T11:57:22;98695.03;;;2.94;100.00
77877;BME280;67251;50.844;7.978;2023-12-20T11:59:48;98701.16;;;2.95;100.00
77877;BME280;67251;50.844;7.978;2023-12-20T12:02:13;98700.03;;;2.97;100.00
77877;BME280;67251;50.844;7.978;2023-12-20T12:04:41;98694.75;;;2.97;100.00
77877;BME280;67251;50.844;7.978;2023-12-20T12:07:06;98688.28;;;3.00;100.00
77877;BME280;67251;50.844;7.978;2023-12-20T12:09:32;98691.78;;;3.00;100.00
77877;BME280;67251;50.844;7.978;2023-12-20T12:11:57;98685.53;;;3.01;100.00
77877;BME280;67251;50.844;7.978;2023-12-20T12:14:23;98672.97;;;3.03;100.00
77877;BME280;67251;50.844;7.978;2023-12-20T12:16:49;98664.22;;;3.03;100.00
77877;BME280;67251;50.844;7.978;2023-12-20T12:19:26;98665.03;;;3.03;100.00
77877;BME280;67251;50.844;7.978;2023-12-20T12:22:04;98673.78;;;3.04;100.00
77877;BME280;67251;50.844;7.978;2023-12-20T12:24:34;98677.44;;;3.03;100.00
77877;BME280;67251;50.844;7.978;2023-12-20T12:26:59;98658.75;;;3.04;100.00
77877;BME280;67251;50.844;7.978;2023-12-20T12:29:24;98658.22;;;3.01;100.00
77877;BME280;67251;50.844;7.978;2023-12-20T12:31:50;98657.09;;;3.03;100.00
77877;BME280;67251;50.844;7.978;2023-12-20T12:34:17;98660.56;;;3.04;100.00
77877;BME280;67251;50.844;7.978;2023-12-20T12:36:43;98657.75;;;3.05;100.00
77877;BME280;67251;50.844;7.978;2023-12-20T12:39:14;98641.91;;;3.05;100.00
77877;BME280;67251;50.844;7.978;2023-12-20T12:41:43;98638.94;;;3.08;100.00
77877;BME280;67251;50.844;7.978;2023-12-20T12:44:08;98646.72;;;3.10;100.00
77877;BME280;67251;50.844;7.978;2023-12-20T12:46:34;98638.47;;;3.13;100.00
77877;BME280;67251;50.844;7.978;2023-12-20T12:49:01;98629.06;;;3.19;100.00
77877;BME280;67251;50.844;7.978;2023-12-20T12:51:26;98620.16;;;3.20;100.00
77877;BME280;67251;50.844;7.978;2023-12-20T12:53:53;98621.66;;;3.22;100.00
77877;BME280;67251;50.844;7.978;2023-12-20T12:56:18;98619.84;;;3.23;100.00
77877;BME280;67251;50.844;7.978;2023-12-20T12:58:44;98625.44;;;3.20;100.00
77877;BME280;67251;50.844;7.978;2023-12-20T13:01:09;98621.31;;;3.17;100.00
77877;BME280;67251;50.844;7.978;2023-12-20T13:03:35;98617.50;;;3.20;100.00
77877;BME280;67251;50.844;7.978;2023-12-20T13:06:01;98618.50;;;3.19;100.00
77877;BME280;67251;50.844;7.978;2023-12-20T13:08:27;98618.66;;;3.17;100.00